createdAt,value
2022-11-17T09:19:28.966Z,3.5
2022-11-17T09:24:28.645Z,3.5
2022-11-17T09:29:29.385Z,3.5
2022-11-17T09:34:29.492Z,3.5
2022-11-17T09:39:29.271Z,3.6
2022-11-17T09:44:28.688Z,3.6
2022-11-17T09:49:28.598Z,3.1
2022-11-17T09:54:28.846Z,3.1
2022-11-17T09:59:29.251Z,3.6
2022-11-17T10:04:28.869Z,3.6
2022-11-17T10:09:29.239Z,3.9
2022-11-17T10:14:28.972Z,3.9
2022-11-17T10:19:29.422Z,3.9
2022-11-17T10:24:28.747Z,3.9
2022-11-17T10:29:28.946Z,3.1
2022-11-17T10:34:40.599Z,3.1
2022-11-17T10:39:28.619Z,3.7
2022-11-17T10:44:29.324Z,3.7
2022-11-17T10:49:29.304Z,4
2022-11-17T10:54:28.633Z,4
2022-11-17T10:59:28.900Z,4.1
2022-11-17T11:04:29.317Z,4.1
2022-11-17T11:09:29.033Z,3.3
2022-11-17T11:14:29.056Z,3.3
2022-11-17T11:19:29.020Z,3.4
2022-11-17T11:24:29.524Z,3.4
2022-11-17T11:29:28.595Z,3.6
2022-11-17T11:34:29.134Z,3.6
2022-11-17T11:39:28.694Z,3.1
2022-11-17T11:44:29.030Z,3.1
2022-11-17T11:49:28.721Z,3.2
2022-11-17T11:54:29.262Z,3.2
2022-11-17T11:59:28.473Z,3.6
2022-11-17T12:04:28.891Z,3.6
2022-11-17T12:09:29.224Z,3.1
2022-11-17T12:14:28.599Z,3.1
2022-11-17T12:19:28.832Z,3.1
2022-11-17T12:24:29.077Z,3.1
2022-11-17T12:29:29.585Z,3.1
2022-11-17T12:34:29.112Z,3.1
2022-11-17T12:39:29.408Z,2.7
2022-11-17T12:44:28.788Z,2.7
2022-11-17T12:49:29.103Z,3
2022-11-17T12:54:29.411Z,3
2022-11-17T12:59:28.656Z,3
2022-11-17T13:04:29.197Z,3
2022-11-17T13:09:28.653Z,3.1
2022-11-17T13:14:29.303Z,3.1
2022-11-17T13:19:28.512Z,2.8
2022-11-17T13:24:28.788Z,2.8
2022-11-17T13:29:29.266Z,2.8
2022-11-17T13:34:28.884Z,2.8
2022-11-17T13:39:29.416Z,3
2022-11-17T13:44:28.835Z,3
2022-11-17T13:49:29.387Z,2.8
2022-11-17T13:54:28.680Z,2.8
2022-11-17T13:59:28.857Z,3.1
2022-11-17T14:04:29.233Z,3.1
2022-11-17T14:09:29.547Z,2.8
2022-11-17T14:14:28.863Z,2.8
2022-11-17T14:19:29.233Z,3
2022-11-17T14:24:29.522Z,3
2022-11-17T14:29:28.644Z,2.3
2022-11-17T14:34:29.028Z,2.3
2022-11-17T14:39:29.335Z,2.5
2022-11-17T14:44:28.720Z,2.5
2022-11-17T14:49:29.312Z,2.2
2022-11-17T14:54:29.369Z,2.2
2022-11-17T14:59:29.050Z,2.3
2022-11-17T15:04:51.415Z,2.3
2022-11-17T15:09:29.585Z,2.9
2022-11-17T15:14:29.507Z,2.9
2022-11-17T15:19:28.970Z,2.7
2022-11-17T15:24:29.575Z,2.7
2022-11-17T15:29:28.839Z,2.5
2022-11-17T15:34:29.559Z,2.5
2022-11-17T15:39:29.520Z,3.1
2022-11-17T15:44:29.484Z,3.1
2022-11-17T15:49:29.092Z,2.7
2022-11-17T15:54:29.619Z,2.7
2022-11-17T15:59:28.967Z,2.4
2022-11-17T16:04:28.592Z,2.4
2022-11-17T16:09:29.164Z,3.1
2022-11-17T16:14:28.922Z,3.1
2022-11-17T16:19:29.359Z,2.8
2022-11-17T16:24:29.345Z,2.8
2022-11-17T16:29:29.379Z,2.6
2022-11-17T16:34:28.909Z,2.6
2022-11-17T16:39:29.239Z,2.7
2022-11-17T16:44:29.556Z,2.7
2022-11-17T16:49:28.947Z,2.2
2022-11-17T16:54:29.373Z,2.2
2022-11-17T16:59:28.757Z,2.8
2022-11-17T17:04:29.101Z,2.8
2022-11-17T17:09:30.650Z,2.4
2022-11-17T17:14:29.243Z,2.4
2022-11-17T17:19:28.708Z,2.5
2022-11-17T17:24:29.087Z,2.5
2022-11-17T17:29:29.329Z,3
2022-11-17T17:34:28.748Z,3
2022-11-17T17:39:29.044Z,2.7
2022-11-17T17:44:29.021Z,2.7
2022-11-17T17:49:29.308Z,2.3
2022-11-17T17:54:30.767Z,2.3
2022-11-17T17:59:28.991Z,2
2022-11-17T18:04:29.330Z,2
2022-11-17T18:09:29.590Z,2.3
2022-11-17T18:14:29.655Z,2.3
2022-11-17T18:19:33.622Z,2.7
2022-11-17T18:24:28.862Z,2.7
2022-11-17T18:29:29.101Z,2.7
2022-11-17T18:34:29.409Z,2.7
2022-11-17T18:39:29.831Z,2.7
2022-11-17T18:44:29.143Z,2.7
2022-11-17T18:49:29.494Z,2.2
2022-11-17T18:54:28.795Z,2.2
2022-11-17T18:59:28.989Z,2.6
2022-11-17T19:04:29.295Z,2.6
2022-11-17T19:09:29.587Z,2.7
2022-11-17T19:14:29.047Z,2.7
2022-11-17T19:19:29.367Z,2.7
2022-11-17T19:24:29.640Z,2.7
2022-11-17T19:29:28.949Z,2.6
2022-11-17T19:34:29.165Z,2.6
2022-11-17T19:39:29.329Z,2.3
2022-11-17T19:44:29.604Z,2.3
2022-11-17T19:49:29.167Z,2.5
2022-11-17T19:54:29.695Z,2.5
2022-11-17T19:59:29.088Z,2.7
2022-11-17T20:04:29.330Z,2.7
2022-11-17T20:09:29.739Z,2.2
2022-11-17T20:14:28.965Z,2.2
2022-11-17T20:19:29.576Z,2.5
2022-11-17T20:24:28.763Z,2.5
2022-11-17T20:29:28.987Z,2.2
2022-11-17T20:34:29.478Z,2.2
2022-11-17T20:39:28.872Z,2.2
2022-11-17T20:44:29.232Z,2.2
2022-11-17T20:49:29.036Z,2.2
2022-11-17T20:54:29.693Z,2.2
2022-11-17T20:59:29.418Z,2.2
2022-11-17T21:04:29.296Z,2.2
2022-11-17T21:09:29.285Z,2.2
2022-11-17T21:14:30.828Z,2.2
2022-11-17T21:19:29.427Z,2.2
2022-11-17T21:24:28.925Z,2.2
